sensor_id;sensor_type;location;lat;lon;timestamp;temperature;humidity
851;DHT22;412;51.400;7.480;2022-07-21T00:02:11;23.30;99.90
851;DHT22;412;51.400;7.480;2022-07-21T00:04:37;23.30;99.90
851;DHT22;412;51.400;7.480;2022-07-21T00:07:03;23.40;99.90
851;DHT22;412;51.400;7.480;2022-07-21T00:09:29;23.30;99.90
851;DHT22;412;51.400;7.480;2022-07-21T00:11:54;23.40;99.90
851;DHT22;412;51.400;7.480;2022-07-21T00:14:20;23.40;99.90
851;DHT22;412;51.400;7.480;2022-07-21T00:16:46;23.40;99.90
851;DHT22;412;51.400;7.480;2022-07-21T00:19:11;23.40;99.90
851;DHT22;412;51.400;7.480;2022-07-21T00:21:37;23.40;99.90
851;DHT22;412;51.400;7.480;2022-07-21T00:24:03;23.50;99.90
851;DHT22;412;51.400;7.480;2022-07-21T00:26:29;23.40;99.90
851;DHT22;412;51.400;7.480;2022-07-21T00:28:55;23.40;99.90
851;DHT22;412;51.400;7.480;2022-07-21T00:31:20;23.40;99.90
851;DHT22;412;51.400;7.480;2022-07-21T00:33:46;23.30;99.90
851;DHT22;412;51.400;7.480;2022-07-21T00:36:12;23.30;99.90
851;DHT22;412;51.400;7.480;2022-07-21T00:38:38;23.30;99.90
851;DHT22;412;51.400;7.480;2022-07-21T00:41:03;23.30;99.90
851;DHT22;412;51.400;7.480;2022-07-21T00:43:29;23.20;99.90
851;DHT22;412;51.400;7.480;2022-07-21T00:45:55;23.20;99.90
851;DHT22;412;51.400;7.480;2022-07-21T00:48:21;23.20;99.90
851;DHT22;412;51.400;7.480;2022-07-21T00:50:47;23.20;99.90
851;DHT22;412;51.400;7.480;2022-07-21T00:53:13;23.20;99.90
851;DHT22;412;51.400;7.480;2022-07-21T00:55:42;23.20;99.90
851;DHT22;412;51.400;7.480;2022-07-21T00:58:08;23.20;99.90
851;DHT22;412;51.400;7.480;2022-07-21T01:00:34;23.20;99.90
851;DHT22;412;51.400;7.480;2022-07-21T01:03:00;23.20;99.90
851;DHT22;412;51.400;7.480;2022-07-21T01:05:26;23.20;99.90
851;DHT22;412;51.400;7.480;2022-07-21T01:07:54;23.20;99.90
851;DHT22;412;51.400;7.480;2022-07-21T01:10:22;23.10;99.90
851;DHT22;412;51.400;7.480;2022-07-21T01:12:49;23.10;99.90
851;DHT22;412;51.400;7.480;2022-07-21T01:15:16;23.10;99.90
851;DHT22;412;51.400;7.480;2022-07-21T01:17:43;23.10;99.90
851;DHT22;412;51.400;7.480;2022-07-21T01:20:14;23.10;99.90
851;DHT22;412;51.400;7.480;2022-07-21T01:22:43;23.10;99.90
851;DHT22;412;51.400;7.480;2022-07-21T01:25:09;23.10;99.90
851;DHT22;412;51.400;7.480;2022-07-21T01:27:35;23.00;99.90
851;DHT22;412;51.400;7.480;2022-07-21T01:30:03;23.00;99.90
851;DHT22;412;51.400;7.480;2022-07-21T01:32:28;23.00;99.90
851;DHT22;412;51.400;7.480;2022-07-21T01:34:54;23.00;99.90
851;DHT22;412;51.400;7.480;2022-07-21T01:37:24;23.00;99.90
851;DHT22;412;51.400;7.480;2022-07-21T01:39:52;23.00;99.90
851;DHT22;412;51.400;7.480;2022-07-21T01:42:36;22.90;99.90
851;DHT22;412;51.400;7.480;2022-07-21T01:45:03;22.90;99.90
851;DHT22;412;51.400;7.480;2022-07-21T01:47:29;22.80;99.90
851;DHT22;412;51.400;7.480;2022-07-21T01:49:55;22.80;99.90
851;DHT22;412;51.400;7.480;2022-07-21T01:52:21;22.80;99.90
851;DHT22;412;51.400;7.480;2022-07-21T01:54:47;22.80;99.90
851;DHT22;412;51.400;7.480;2022-07-21T01:57:12;22.70;99.90
851;DHT22;412;51.400;7.480;2022-07-21T01:59:38;22.70;99.90
851;DHT22;412;51.400;7.480;2022-07-21T02:02:04;22.70;99.90
851;DHT22;412;51.400;7.480;2022-07-21T02:04:30;22.70;99.90
851;DHT22;412;51.400;7.480;2022-07-21T02:06:55;22.70;99.90
851;DHT22;412;51.400;7.480;2022-07-21T02:09:21;22.60;99.90
851;DHT22;412;51.400;7.480;2022-07-21T02:11:47;22.60;99.90
851;DHT22;412;51.400;7.480;2022-07-21T02:14:13;22.60;99.90
851;DHT22;412;51.400;7.480;2022-07-21T02:16:38;22.50;99.90
851;DHT22;412;51.400;7.480;2022-07-21T02:19:04;22.50;99.90
851;DHT22;412;51.400;7.480;2022-07-21T02:21:30;22.50;99.90
851;DHT22;412;51.400;7.480;2022-07-21T02:23:55;22.60;99.90
851;DHT22;412;51.400;7.480;2022-07-21T02:26:21;22.50;99.90
851;DHT22;412;51.400;7.480;2022-07-21T02:28:47;22.50;99.90
851;DHT22;412;51.400;7.480;2022-07-21T02:31:13;22.40;99.90
851;DHT22;412;51.400;7.480;2022-07-21T02:33:39;22.30;99.90
851;DHT22;412;51.400;7.480;2022-07-21T02:36:05;22.30;99.90
851;DHT22;412;51.400;7.480;2022-07-21T02:38:30;22.20;99.90
851;DHT22;412;51.400;7.480;2022-07-21T02:40:56;22.20;99.90
851;DHT22;412;51.400;7.480;2022-07-21T02:43:22;22.20;99.90
851;DHT22;412;51.400;7.480;2022-07-21T02:45:48;22.20;99.90
851;DHT22;412;51.400;7.480;2022-07-21T02:48:13;22.20;99.90
851;DHT22;412;51.400;7.480;2022-07-21T02:50:42;22.10;99.90
851;DHT22;412;51.400;7.480;2022-07-21T02:53:14;22.20;99.90
851;DHT22;412;51.400;7.480;2022-07-21T02:55:43;22.20;99.90
851;DHT22;412;51.400;7.480;2022-07-21T02:58:25;22.20;99.90
851;DHT22;412;51.400;7.480;2022-07-21T03:00:53;22.20;99.90
851;DHT22;412;51.400;7.480;2022-07-21T03:03:19;22.20;99.90
851;DHT22;412;51.400;7.480;2022-07-21T03:05:46;22.20;99.90
851;DHT22;412;51.400;7.480;2022-07-21T03:08:15;22.20;99.90
851;DHT22;412;51.400;7.480;2022-07-21T03:10:42;22.20;99.90
851;DHT22;412;51.400;7.480;2022-07-21T03:13:08;22.30;99.90
851;DHT22;412;51.400;7.480;2022-07-21T03:15:34;22.20;99.90
851;DHT22;412;51.400;7.480;2022-07-21T03:18:00;22.20;99.90
851;DHT22;412;51.400;7.480;2022-07-21T03:20:28;22.20;99.90
851;DHT22;412;51.400;7.480;2022-07-21T03:22:55;22.20;99.90
851;DHT22;412;51.400;7.480;2022-07-21T03:25:21;22.20;99.90
851;DHT22;412;51.400;7.480;2022-07-21T03:27:48;22.20;99.90
851;DHT22;412;51.400;7.480;2022-07-21T03:30:14;22.20;99.90
851;DHT22;412;51.400;7.480;2022-07-21T03:32:40;22.20;99.90
851;DHT22;412;51.400;7.480;2022-07-21T03:35:08;22.20;99.90
851;DHT22;412;51.400;7.480;2022-07-21T03:37:54;22.20;99.90
851;DHT22;412;51.400;7.480;2022-07-21T03:40:21;22.20;99.90
851;DHT22;412;51.400;7.480;2022-07-21T03:42:54;22.10;99.90
851;DHT22;412;51.400;7.480;2022-07-21T03:45:21;22.20;99.90
851;DHT22;412;51.400;7.480;2022-07-21T03:47:47;22.20;99.90
851;DHT22;412;51.400;7.480;2022-07-21T03:50:13;22.20;99.90
851;DHT22;412;51.400;7.480;2022-07-21T03:52:41;22.20;99.90
851;DHT22;412;51.400;7.480;2022-07-21T03:55:07;22.10;99.90
851;DHT22;412;51.400;7.480;2022-07-21T03:57:50;22.10;99.90
851;DHT22;412;51.400;7.480;2022-07-21T04:00:23;22.10;99.90
851;DHT22;412;51.400;7.480;2022-07-21T04:02:49;22.10;99.90
851;DHT22;412;51.400;7.480;2022-07-21T04:05:15;22.00;99.90
851;DHT22;412;51.400;7.480;2022-07-21T04:07:44;21.90;99.90
851;DHT22;412;51.400;7.480;2022-07-21T04:10:12;21.90;99.90
851;DHT22;412;51.400;7.480;2022-07-21T04:12:38;21.90;99.90
851;DHT22;412;51.400;7.480;2022-07-21T04:15:07;21.90;99.90
851;DHT22;412;51.400;7.480;2022-07-21T04:17:34;21.90;99.90
851;DHT22;412;51.400;7.480;2022-07-21T04:20:00;21.90;99.90
851;DHT22;412;51.400;7.480;2022-07-21T04:22:26;22.00;99.90
851;DHT22;412;51.400;7.480;2022-07-21T04:24:52;22.00;99.90
851;DHT22;412;51.400;7.480;2022-07-21T04:27:17;22.00;99.90
851;DHT22;412;51.400;7.480;2022-07-21T04:29:43;22.10;99.90
851;DHT22;412;51.400;7.480;2022-07-21T04:32:09;22.10;99.90
851;DHT22;412;51.400;7.480;2022-07-21T04:34:35;22.10;99.90
851;DHT22;412;51.400;7.480;2022-07-21T04:37:00;22.20;99.90
851;DHT22;412;51.400;7.480;2022-07-21T04:39:26;22.30;99.90
851;DHT22;412;51.400;7.480;2022-07-21T04:41:53;22.40;99.90
851;DHT22;412;51.400;7.480;2022-07-21T04:44:18;22.60;99.90
851;DHT22;412;51.400;7.480;2022-07-21T04:46:44;22.80;99.90
851;DHT22;412;51.400;7.480;2022-07-21T04:49:10;22.80;99.90
851;DHT22;412;51.400;7.480;2022-07-21T04:51:36;22.80;99.90
851;DHT22;412;51.400;7.480;2022-07-21T04:54:01;23.00;99.90
851;DHT22;412;51.400;7.480;2022-07-21T04:56:27;23.10;99.90
851;DHT22;412;51.400;7.480;2022-07-21T04:58:53;23.20;99.90
851;DHT22;412;51.400;7.480;2022-07-21T05:01:18;23.30;99.90
851;DHT22;412;51.400;7.480;2022-07-21T05:03:45;23.50;99.90
851;DHT22;412;51.400;7.480;2022-07-21T05:06:11;23.60;99.90
851;DHT22;412;51.400;7.480;2022-07-21T05:08:37;23.70;99.90
851;DHT22;412;51.400;7.480;2022-07-21T05:11:03;23.80;99.90
851;DHT22;412;51.400;7.480;2022-07-21T05:13:28;23.90;99.90
851;DHT22;412;51.400;7.480;2022-07-21T05:15:54;23.90;99.90
851;DHT22;412;51.400;7.480;2022-07-21T05:18:20;24.00;99.90
851;DHT22;412;51.400;7.480;2022-07-21T05:20:45;24.10;99.90
851;DHT22;412;51.400;7.480;2022-07-21T05:23:11;24.20;99.90
851;DHT22;412;51.400;7.480;2022-07-21T05:25:37;24.20;99.90
851;DHT22;412;51.400;7.480;2022-07-21T05:28:05;24.30;99.90
851;DHT22;412;51.400;7.480;2022-07-21T05:30:30;24.30;99.90
851;DHT22;412;51.400;7.480;2022-07-21T05:32:56;24.10;99.90
851;DHT22;412;51.400;7.480;2022-07-21T05:35:22;24.10;99.90
851;DHT22;412;51.400;7.480;2022-07-21T05:37:48;24.10;99.90
851;DHT22;412;51.400;7.480;2022-07-21T05:40:14;23.90;99.90
851;DHT22;412;51.400;7.480;2022-07-21T05:42:40;23.90;99.90
851;DHT22;412;51.400;7.480;2022-07-21T05:45:06;23.90;99.90
851;DHT22;412;51.400;7.480;2022-07-21T05:47:32;23.80;99.90
851;DHT22;412;51.400;7.480;2022-07-21T05:49:58;23.90;99.90
851;DHT22;412;51.400;7.480;2022-07-21T05:52:25;23.80;99.90
851;DHT22;412;51.400;7.480;2022-07-21T05:54:51;23.80;99.90
851;DHT22;412;51.400;7.480;2022-07-21T05:57:17;23.80;99.90
851;DHT22;412;51.400;7.480;2022-07-21T05:59:44;23.50;99.90
851;DHT22;412;51.400;7.480;2022-07-21T06:02:10;23.30;99.90
851;DHT22;412;51.400;7.480;2022-07-21T06:04:36;23.20;99.90
851;DHT22;412;51.400;7.480;2022-07-21T06:07:02;23.00;99.90
851;DHT22;412;51.400;7.480;2022-07-21T06:09:28;22.90;99.90
851;DHT22;412;51.400;7.480;2022-07-21T06:11:53;22.90;99.90
851;DHT22;412;51.400;7.480;2022-07-21T06:14:19;22.80;99.90
851;DHT22;412;51.400;7.480;2022-07-21T06:16:45;22.80;99.90
851;DHT22;412;51.400;7.480;2022-07-21T06:19:11;22.90;99.90
851;DHT22;412;51.400;7.480;2022-07-21T06:21:37;22.80;99.90
851;DHT22;412;51.400;7.480;2022-07-21T06:24:03;22.70;99.90
851;DHT22;412;51.400;7.480;2022-07-21T06:26:28;22.70;99.90
851;DHT22;412;51.400;7.480;2022-07-21T06:28:54;22.70;99.90
851;DHT22;412;51.400;7.480;2022-07-21T06:31:20;22.70;99.90
851;DHT22;412;51.400;7.480;2022-07-21T06:33:46;22.70;99.90
851;DHT22;412;51.400;7.480;2022-07-21T06:36:11;22.70;99.90
851;DHT22;412;51.400;7.480;2022-07-21T06:38:37;22.60;99.90
851;DHT22;412;51.400;7.480;2022-07-21T06:41:03;22.50;99.90
851;DHT22;412;51.400;7.480;2022-07-21T06:43:29;22.30;99.90
851;DHT22;412;51.400;7.480;2022-07-21T06:45:56;22.30;99.90
851;DHT22;412;51.400;7.480;2022-07-21T06:48:22;22.30;99.90
851;DHT22;412;51.400;7.480;2022-07-21T06:50:48;22.20;99.90
851;DHT22;412;51.400;7.480;2022-07-21T06:53:14;22.20;99.90
851;DHT22;412;51.400;7.480;2022-07-21T06:55:40;22.20;99.90
851;DHT22;412;51.400;7.480;2022-07-21T06:58:18;22.20;99.90
851;DHT22;412;51.400;7.480;2022-07-21T07:00:45;22.20;99.90
851;DHT22;412;51.400;7.480;2022-07-21T07:03:11;22.20;99.90
851;DHT22;412;51.400;7.480;2022-07-21T07:05:37;22.20;99.90
851;DHT22;412;51.400;7.480;2022-07-21T07:08:03;22.20;99.90
851;DHT22;412;51.400;7.480;2022-07-21T07:10:29;22.20;99.90
851;DHT22;412;51.400;7.480;2022-07-21T07:12:55;22.30;99.90
851;DHT22;412;51.400;7.480;2022-07-21T07:15:22;22.30;99.90
851;DHT22;412;51.400;7.480;2022-07-21T07:17:48;22.40;99.90
851;DHT22;412;51.400;7.480;2022-07-21T07:20:14;22.50;99.90
851;DHT22;412;51.400;7.480;2022-07-21T07:22:40;22.50;99.90
851;DHT22;412;51.400;7.480;2022-07-21T07:25:06;22.50;99.90
851;DHT22;412;51.400;7.480;2022-07-21T07:27:33;22.50;99.90
851;DHT22;412;51.400;7.480;2022-07-21T07:29:59;22.50;99.90
851;DHT22;412;51.400;7.480;2022-07-21T07:32:24;22.30;99.90
851;DHT22;412;51.400;7.480;2022-07-21T07:34:50;22.40;99.90
851;DHT22;412;51.400;7.480;2022-07-21T07:37:16;22.40;99.90
851;DHT22;412;51.400;7.480;2022-07-21T07:39:42;22.50;99.90
851;DHT22;412;51.400;7.480;2022-07-21T07:42:08;22.50;99.90
851;DHT22;412;51.400;7.480;2022-07-21T07:44:34;22.40;99.90
851;DHT22;412;51.400;7.480;2022-07-21T07:46:59;22.50;99.90
851;DHT22;412;51.400;7.480;2022-07-21T07:49:30;22.50;99.90
851;DHT22;412;51.400;7.480;2022-07-21T07:51:57;22.40;99.90
851;DHT22;412;51.400;7.480;2022-07-21T07:54:23;22.50;99.90
851;DHT22;412;51.400;7.480;2022-07-21T07:56:49;22.50;99.90
851;DHT22;412;51.400;7.480;2022-07-21T07:59:15;22.50;99.90
851;DHT22;412;51.400;7.480;2022-07-21T08:01:41;22.50;99.90
851;DHT22;412;51.400;7.480;2022-07-21T08:04:06;22.40;99.90
851;DHT22;412;51.400;7.480;2022-07-21T08:06:32;22.40;99.90
851;DHT22;412;51.400;7.480;2022-07-21T08:08:58;22.50;99.90
851;DHT22;412;51.400;7.480;2022-07-21T08:11:24;22.60;99.90
851;DHT22;412;51.400;7.480;2022-07-21T08:13:50;22.60;99.90
851;DHT22;412;51.400;7.480;2022-07-21T08:16:16;22.60;99.90
851;DHT22;412;51.400;7.480;2022-07-21T08:18:42;22.60;99.90
851;DHT22;412;51.400;7.480;2022-07-21T08:21:08;22.70;99.90
851;DHT22;412;51.400;7.480;2022-07-21T08:23:34;22.70;99.90
851;DHT22;412;51.400;7.480;2022-07-21T08:26:00;22.70;99.90
851;DHT22;412;51.400;7.480;2022-07-21T08:28:27;22.70;99.90
851;DHT22;412;51.400;7.480;2022-07-21T08:30:52;22.80;99.90
851;DHT22;412;51.400;7.480;2022-07-21T08:33:18;22.90;99.90
851;DHT22;412;51.400;7.480;2022-07-21T08:35:44;23.10;99.90
851;DHT22;412;51.400;7.480;2022-07-21T08:38:10;23.20;99.90
851;DHT22;412;51.400;7.480;2022-07-21T08:40:43;23.30;99.90
851;DHT22;412;51.400;7.480;2022-07-21T08:43:09;23.30;99.90
851;DHT22;412;51.400;7.480;2022-07-21T08:45:36;23.40;99.90
851;DHT22;412;51.400;7.480;2022-07-21T08:48:03;23.60;99.90
851;DHT22;412;51.400;7.480;2022-07-21T08:50:32;23.70;99.90
851;DHT22;412;51.400;7.480;2022-07-21T08:52:58;23.90;99.90
851;DHT22;412;51.400;7.480;2022-07-21T08:55:24;24.10;99.90
851;DHT22;412;51.400;7.480;2022-07-21T08:57:50;24.30;99.90
851;DHT22;412;51.400;7.480;2022-07-21T09:00:16;24.40;99.90
851;DHT22;412;51.400;7.480;2022-07-21T09:02:42;24.50;99.90
851;DHT22;412;51.400;7.480;2022-07-21T09:05:11;24.40;99.90
851;DHT22;412;51.400;7.480;2022-07-21T09:10:13;24.40;99.60
851;DHT22;412;51.400;7.480;2022-07-21T09:12:53;24.30;99.90
851;DHT22;412;51.400;7.480;2022-07-21T09:15:20;24.40;99.90
851;DHT22;412;51.400;7.480;2022-07-21T09:17:47;24.40;99.90
851;DHT22;412;51.400;7.480;2022-07-21T09:20:28;24.50;99.80
851;DHT22;412;51.400;7.480;2022-07-21T09:23:12;24.60;99.70
851;DHT22;412;51.400;7.480;2022-07-21T09:25:42;24.70;99.80
851;DHT22;412;51.400;7.480;2022-07-21T09:35:56;24.90;99.00
851;DHT22;412;51.400;7.480;2022-07-21T09:38:23;24.90;98.50
851;DHT22;412;51.400;7.480;2022-07-21T09:40:49;24.90;97.90
851;DHT22;412;51.400;7.480;2022-07-21T09:46:00;24.90;98.00
851;DHT22;412;51.400;7.480;2022-07-21T09:48:47;24.80;97.00
851;DHT22;412;51.400;7.480;2022-07-21T09:51:23;24.70;96.60
851;DHT22;412;51.400;7.480;2022-07-21T09:56:32;24.70;97.90
851;DHT22;412;51.400;7.480;2022-07-21T09:58:59;24.60;98.10
851;DHT22;412;51.400;7.480;2022-07-21T10:01:27;24.60;98.60
851;DHT22;412;51.400;7.480;2022-07-21T10:03:53;24.50;98.70
851;DHT22;412;51.400;7.480;2022-07-21T10:06:23;24.50;98.80
851;DHT22;412;51.400;7.480;2022-07-21T10:08:50;24.50;98.40
851;DHT22;412;51.400;7.480;2022-07-21T10:11:17;24.40;98.00
851;DHT22;412;51.400;7.480;2022-07-21T10:13:43;24.40;97.90
851;DHT22;412;51.400;7.480;2022-07-21T10:16:12;24.50;98.30
851;DHT22;412;51.400;7.480;2022-07-21T10:19:00;24.50;98.70
851;DHT22;412;51.400;7.480;2022-07-21T10:24:10;24.50;98.50
851;DHT22;412;51.400;7.480;2022-07-21T10:26:36;24.50;99.00
851;DHT22;412;51.400;7.480;2022-07-21T10:29:02;24.40;99.40
851;DHT22;412;51.400;7.480;2022-07-21T10:31:28;24.40;99.80
851;DHT22;412;51.400;7.480;2022-07-21T10:33:59;24.40;99.20
851;DHT22;412;51.400;7.480;2022-07-21T10:41:43;24.30;99.60
851;DHT22;412;51.400;7.480;2022-07-21T10:57:43;24.30;99.90
851;DHT22;412;51.400;7.480;2022-07-21T11:00:29;24.40;99.90
851;DHT22;412;51.400;7.480;2022-07-21T11:03:00;24.30;99.70
851;DHT22;412;51.400;7.480;2022-07-21T11:05:29;24.30;99.80
851;DHT22;412;51.400;7.480;2022-07-21T11:08:14;24.10;99.20
851;DHT22;412;51.400;7.480;2022-07-21T11:10:45;24.10;99.60
851;DHT22;412;51.400;7.480;2022-07-21T11:13:12;24.00;99.90
851;DHT22;412;51.400;7.480;2022-07-21T11:16:01;24.00;99.90
851;DHT22;412;51.400;7.480;2022-07-21T11:18:30;23.90;99.90
851;DHT22;412;51.400;7.480;2022-07-21T11:21:11;23.90;99.90
851;DHT22;412;51.400;7.480;2022-07-21T11:23:57;23.90;99.90
851;DHT22;412;51.400;7.480;2022-07-21T11:26:26;23.80;99.90
851;DHT22;412;51.400;7.480;2022-07-21T11:29:05;23.80;99.90
851;DHT22;412;51.400;7.480;2022-07-21T11:31:31;23.90;99.90
851;DHT22;412;51.400;7.480;2022-07-21T11:33:57;23.80;99.90
851;DHT22;412;51.400;7.480;2022-07-21T11:36:31;23.90;99.90
851;DHT22;412;51.400;7.480;2022-07-21T11:39:09;23.90;99.90
851;DHT22;412;51.400;7.480;2022-07-21T11:41:37;23.90;99.80
851;DHT22;412;51.400;7.480;2022-07-21T11:44:04;23.80;99.80
851;DHT22;412;51.400;7.480;2022-07-21T11:49:15;23.70;99.90
851;DHT22;412;51.400;7.480;2022-07-21T11:51:57;23.70;99.90
851;DHT22;412;51.400;7.480;2022-07-21T11:54:36;23.60;99.90
851;DHT22;412;51.400;7.480;2022-07-21T11:57:05;23.60;99.90
851;DHT22;412;51.400;7.480;2022-07-21T11:59:31;23.60;99.90
851;DHT22;412;51.400;7.480;2022-07-21T12:07:15;23.40;99.90
851;DHT22;412;51.400;7.480;2022-07-21T12:09:43;23.40;99.90
851;DHT22;412;51.400;7.480;2022-07-21T12:12:09;23.40;99.90
851;DHT22;412;51.400;7.480;2022-07-21T12:14:46;23.30;99.90
851;DHT22;412;51.400;7.480;2022-07-21T12:17:14;23.30;99.90
851;DHT22;412;51.400;7.480;2022-07-21T12:19:41;23.20;99.90
851;DHT22;412;51.400;7.480;2022-07-21T12:22:08;23.20;99.90
851;DHT22;412;51.400;7.480;2022-07-21T12:24:56;23.10;99.90
851;DHT22;412;51.400;7.480;2022-07-21T12:27:24;23.00;99.90
851;DHT22;412;51.400;7.480;2022-07-21T12:29:50;22.90;99.90
851;DHT22;412;51.400;7.480;2022-07-21T12:35:05;22.90;99.90
851;DHT22;412;51.400;7.480;2022-07-21T12:40:19;22.90;99.90
851;DHT22;412;51.400;7.480;2022-07-21T12:42:46;22.80;99.90
851;DHT22;412;51.400;7.480;2022-07-21T12:45:14;22.80;99.90
851;DHT22;412;51.400;7.480;2022-07-21T12:47:40;22.80;99.90
851;DHT22;412;51.400;7.480;2022-07-21T12:50:12;22.80;99.90
851;DHT22;412;51.400;7.480;2022-07-21T12:52:39;22.80;99.90
851;DHT22;412;51.400;7.480;2022-07-21T12:55:06;22.80;99.90
851;DHT22;412;51.400;7.480;2022-07-21T12:57:32;22.80;99.90
851;DHT22;412;51.400;7.480;2022-07-21T13:00:00;22.80;99.90
851;DHT22;412;51.400;7.480;2022-07-21T13:02:26;22.90;99.90
851;DHT22;412;51.400;7.480;2022-07-21T13:04:53;22.90;99.90
851;DHT22;412;51.400;7.480;2022-07-21T13:07:19;23.00;99.90
851;DHT22;412;51.400;7.480;2022-07-21T13:09:45;23.00;99.90
851;DHT22;412;51.400;7.480;2022-07-21T13:12:14;22.90;99.90
851;DHT22;412;51.400;7.480;2022-07-21T13:14:41;22.80;99.90
851;DHT22;412;51.400;7.480;2022-07-21T13:17:08;22.80;99.90
851;DHT22;412;51.400;7.480;2022-07-21T13:19:34;22.80;99.90
851;DHT22;412;51.400;7.480;2022-07-21T13:22:03;22.80;99.90
851;DHT22;412;51.400;7.480;2022-07-21T13:24:29;22.80;99.90
851;DHT22;412;51.400;7.480;2022-07-21T13:26:55;22.80;99.90
851;DHT22;412;51.400;7.480;2022-07-21T13:29:21;22.80;99.90
851;DHT22;412;51.400;7.480;2022-07-21T13:31:47;22.70;99.90
851;DHT22;412;51.400;7.480;2022-07-21T13:34:12;22.80;99.90
851;DHT22;412;51.400;7.480;2022-07-21T13:36:38;22.80;99.90
851;DHT22;412;51.400;7.480;2022-07-21T13:39:05;22.70;99.90
851;DHT22;412;51.400;7.480;2022-07-21T13:41:32;22.70;99.90
851;DHT22;412;51.400;7.480;2022-07-21T13:43:59;22.70;99.90
851;DHT22;412;51.400;7.480;2022-07-21T13:46:25;22.70;99.90
851;DHT22;412;51.400;7.480;2022-07-21T13:48:51;22.70;99.90
851;DHT22;412;51.400;7.480;2022-07-21T13:51:18;22.70;99.90
851;DHT22;412;51.400;7.480;2022-07-21T13:53:45;22.70;99.90
851;DHT22;412;51.400;7.480;2022-07-21T13:56:11;22.70;99.90
851;DHT22;412;51.400;7.480;2022-07-21T13:58:38;22.70;99.90
851;DHT22;412;51.400;7.480;2022-07-21T14:01:04;22.70;99.90
851;DHT22;412;51.400;7.480;2022-07-21T14:03:30;22.70;99.90
851;DHT22;412;51.400;7.480;2022-07-21T14:05:56;22.70;99.90
851;DHT22;412;51.400;7.480;2022-07-21T14:08:21;22.70;99.90
851;DHT22;412;51.400;7.480;2022-07-21T14:10:47;22.70;99.90
851;DHT22;412;51.400;7.480;2022-07-21T14:13:13;22.70;99.90
851;DHT22;412;51.400;7.480;2022-07-21T14:15:39;22.60;99.90
851;DHT22;412;51.400;7.480;2022-07-21T14:18:05;22.60;99.90
851;DHT22;412;51.400;7.480;2022-07-21T14:20:30;22.60;99.90
851;DHT22;412;51.400;7.480;2022-07-21T14:22:56;22.60;99.90
851;DHT22;412;51.400;7.480;2022-07-21T14:25:22;22.50;99.90
851;DHT22;412;51.400;7.480;2022-07-21T14:27:55;22.50;99.90
851;DHT22;412;51.400;7.480;2022-07-21T14:30:22;22.40;99.90
851;DHT22;412;51.400;7.480;2022-07-21T14:32:48;22.30;99.90
851;DHT22;412;51.400;7.480;2022-07-21T14:35:15;22.20;99.90
851;DHT22;412;51.400;7.480;2022-07-21T14:37:42;22.10;99.90
851;DHT22;412;51.400;7.480;2022-07-21T14:40:09;22.10;99.90
851;DHT22;412;51.400;7.480;2022-07-21T14:42:35;22.00;99.90
851;DHT22;412;51.400;7.480;2022-07-21T14:45:02;21.90;99.90
851;DHT22;412;51.400;7.480;2022-07-21T14:47:28;21.90;99.90
851;DHT22;412;51.400;7.480;2022-07-21T14:49:56;21.80;99.90
851;DHT22;412;51.400;7.480;2022-07-21T14:52:22;21.80;99.90
851;DHT22;412;51.400;7.480;2022-07-21T14:54:48;21.80;99.90
851;DHT22;412;51.400;7.480;2022-07-21T14:57:14;21.70;99.90
851;DHT22;412;51.400;7.480;2022-07-21T14:59:39;21.70;99.90
851;DHT22;412;51.400;7.480;2022-07-21T15:02:06;21.70;99.90
851;DHT22;412;51.400;7.480;2022-07-21T15:04:32;21.60;99.90
851;DHT22;412;51.400;7.480;2022-07-21T15:06:58;21.50;99.90
851;DHT22;412;51.400;7.480;2022-07-21T15:09:23;21.50;99.90
851;DHT22;412;51.400;7.480;2022-07-21T15:11:49;21.60;99.90
851;DHT22;412;51.400;7.480;2022-07-21T15:14:15;21.60;99.90
851;DHT22;412;51.400;7.480;2022-07-21T15:16:41;21.60;99.90
851;DHT22;412;51.400;7.480;2022-07-21T15:19:07;21.60;99.90
851;DHT22;412;51.400;7.480;2022-07-21T15:21:33;21.60;99.90
851;DHT22;412;51.400;7.480;2022-07-21T15:23:59;21.70;99.90
851;DHT22;412;51.400;7.480;2022-07-21T15:26:25;21.80;99.90
851;DHT22;412;51.400;7.480;2022-07-21T15:28:51;21.90;99.90
851;DHT22;412;51.400;7.480;2022-07-21T15:31:17;22.00;99.90
851;DHT22;412;51.400;7.480;2022-07-21T15:33:43;22.00;99.90
851;DHT22;412;51.400;7.480;2022-07-21T15:36:09;22.10;99.90
851;DHT22;412;51.400;7.480;2022-07-21T15:38:36;22.10;99.90
851;DHT22;412;51.400;7.480;2022-07-21T15:41:02;22.20;99.90
851;DHT22;412;51.400;7.480;2022-07-21T15:43:29;22.20;99.90
851;DHT22;412;51.400;7.480;2022-07-21T15:45:55;22.20;99.90
851;DHT22;412;51.400;7.480;2022-07-21T15:48:20;22.20;99.90
851;DHT22;412;51.400;7.480;2022-07-21T15:50:46;22.20;99.90
851;DHT22;412;51.400;7.480;2022-07-21T15:53:12;22.10;99.90
851;DHT22;412;51.400;7.480;2022-07-21T15:55:38;22.20;99.90
851;DHT22;412;51.400;7.480;2022-07-21T15:58:05;22.20;99.90
851;DHT22;412;51.400;7.480;2022-07-21T16:00:31;22.20;99.90
851;DHT22;412;51.400;7.480;2022-07-21T16:02:56;22.20;99.90
851;DHT22;412;51.400;7.480;2022-07-21T16:05:26;22.20;99.90
851;DHT22;412;51.400;7.480;2022-07-21T16:07:53;22.10;99.90
851;DHT22;412;51.400;7.480;2022-07-21T16:10:21;22.20;99.90
851;DHT22;412;51.400;7.480;2022-07-21T16:12:51;22.30;99.90
851;DHT22;412;51.400;7.480;2022-07-21T16:15:17;22.40;99.90
851;DHT22;412;51.400;7.480;2022-07-21T16:17:43;22.30;99.90
851;DHT22;412;51.400;7.480;2022-07-21T16:20:10;22.40;99.90
851;DHT22;412;51.400;7.480;2022-07-21T16:22:36;22.40;99.90
851;DHT22;412;51.400;7.480;2022-07-21T16:25:03;22.40;99.90
851;DHT22;412;51.400;7.480;2022-07-21T16:27:29;22.50;99.90
851;DHT22;412;51.400;7.480;2022-07-21T16:29:55;22.50;99.90
851;DHT22;412;51.400;7.480;2022-07-21T16:32:21;22.50;99.90
851;DHT22;412;51.400;7.480;2022-07-21T16:34:47;22.50;99.90
851;DHT22;412;51.400;7.480;2022-07-21T16:37:12;22.40;99.90
851;DHT22;412;51.400;7.480;2022-07-21T16:39:40;22.40;99.90
851;DHT22;412;51.400;7.480;2022-07-21T16:42:06;22.40;99.90
851;DHT22;412;51.400;7.480;2022-07-21T16:44:33;22.40;99.90
851;DHT22;412;51.400;7.480;2022-07-21T16:47:00;22.50;99.90
851;DHT22;412;51.400;7.480;2022-07-21T16:49:25;22.40;99.90
851;DHT22;412;51.400;7.480;2022-07-21T16:51:51;22.40;99.90
851;DHT22;412;51.400;7.480;2022-07-21T16:54:17;22.50;99.90
851;DHT22;412;51.400;7.480;2022-07-21T16:56:43;22.60;99.90
851;DHT22;412;51.400;7.480;2022-07-21T16:59:10;22.70;99.90
851;DHT22;412;51.400;7.480;2022-07-21T17:01:36;22.70;99.90
851;DHT22;412;51.400;7.480;2022-07-21T17:04:03;22.80;99.90
851;DHT22;412;51.400;7.480;2022-07-21T17:06:29;22.90;99.90
851;DHT22;412;51.400;7.480;2022-07-21T17:08:55;22.90;99.90
851;DHT22;412;51.400;7.480;2022-07-21T17:11:20;22.90;99.90
851;DHT22;412;51.400;7.480;2022-07-21T17:13:46;22.80;99.90
851;DHT22;412;51.400;7.480;2022-07-21T17:16:12;22.90;99.90
851;DHT22;412;51.400;7.480;2022-07-21T17:18:38;23.00;99.90
851;DHT22;412;51.400;7.480;2022-07-21T17:21:04;23.00;99.90
851;DHT22;412;51.400;7.480;2022-07-21T17:23:35;23.10;99.90
851;DHT22;412;51.400;7.480;2022-07-21T17:26:02;23.10;99.90